Time;durP1;ratioP1;P1;durP2;ratioP2;P2;SDS_P1;SDS_P2;PMS_P1;PMS_P2;Temp;Humidity;BMP_temperature;BMP_pressure;BME280_temperature;BME280_humidity;BME280_pressure;Samples;Min_cycle;Max_cycle;Signal;HPM_P1;HPM_P2
2023/07/03 00:03:25;;;;;;;24.67;5.88;;;;;;;16.53;100.00;100867.28;10255671;29;20031;-80
2023/07/03 00:08:26;;;;;;;17.38;6.78;;;;;;;16.49;100.00;100866.06;10256256;28;20074;-79
2023/07/03 00:13:26;;;;;;;24.08;6.10;;;;;;;16.39;100.00;100868.56;10257715;29;20039;-79
2023/07/03 00:18:28;;;;;;;31.65;9.07;;;;;;;16.33;100.00;100872.22;10256861;29;20138;-79
2023/07/03 00:23:28;;;;;;;25.25;6.28;;;;;;;16.25;100.00;100874.25;10256175;29;20035;-79
2023/07/03 00:28:29;;;;;;;25.10;6.88;;;;;;;16.31;100.00;100868.94;10257181;29;20039;-78
2023/07/03 00:33:29;;;;;;;33.28;8.48;;;;;;;16.46;100.00;100870.13;10255633;29;20042;-79
2023/07/03 00:38:30;;;;;;;24.30;6.35;;;;;;;16.66;100.00;100866.19;10255065;29;20424;-78
2023/07/03 00:43:32;;;;;;;23.95;8.52;;;;;;;16.93;100.00;100872.00;10256055;28;20042;-79
2023/07/03 00:48:33;;;;;;;24.05;6.93;;;;;;;17.09;100.00;100867.69;10254602;29;20471;-79
2023/07/03 00:53:34;;;;;;;19.23;6.93;;;;;;;17.14;100.00;100863.16;10238512;29;20055;-79
2023/07/03 00:58:34;;;;;;;17.50;5.70;;;;;;;17.20;100.00;100869.59;10223462;29;20110;-79
2023/07/03 01:03:39;;;;;;;17.92;4.47;;;;;;;17.16;100.00;100865.66;10248414;29;20049;-79
2023/07/03 01:08:39;;;;;;;16.73;5.55;;;;;;;17.22;100.00;100858.38;10234960;29;20035;-79
2023/07/03 01:13:40;;;;;;;15.55;5.32;;;;;;;17.18;100.00;100852.56;10257206;29;20041;-79
2023/07/03 01:18:40;;;;;;;19.20;4.78;;;;;;;17.23;100.00;100852.69;10237847;28;20124;-78
2023/07/03 01:24:04;;;;;;;11.57;5.00;;;;;;;17.22;100.00;100859.22;10254612;28;20036;-79
2023/07/03 01:29:04;;;;;;;9.93;3.95;;;;;;;17.22;100.00;100861.94;10237659;29;20392;-79
2023/07/03 01:34:05;;;;;;;13.75;4.20;;;;;;;17.24;99.62;100873.50;10236630;29;20122;-79
2023/07/03 01:39:06;;;;;;;15.27;3.47;;;;;;;17.20;94.83;100853.16;10252942;29;20441;-79
2023/07/03 01:44:07;;;;;;;12.77;3.40;;;;;;;17.22;90.74;100861.13;10237222;29;20040;-79
2023/07/03 01:49:12;;;;;;;2.78;2.30;;;;;;;17.24;86.94;100857.06;10254261;29;20094;-79
2023/07/03 01:54:21;;;;;;;10.93;3.55;;;;;;;17.26;84.26;100854.09;10236560;29;20123;-79
2023/07/03 01:59:24;;;;;;;7.53;2.40;;;;;;;17.24;83.14;100846.13;10237785;29;20371;-79
2023/07/03 02:04:36;;;;;;;16.25;3.97;;;;;;;17.19;81.81;100856.97;10235863;29;20039;-79
2023/07/03 02:09:39;;;;;;;10.75;2.88;;;;;;;17.13;78.95;100846.97;10254444;28;20093;-79
2023/07/03 02:14:40;;;;;;;6.22;2.78;;;;;;;17.07;75.78;100853.41;10251672;29;20031;-79
2023/07/03 02:19:40;;;;;;;5.85;2.25;;;;;;;17.03;72.35;100846.78;10236062;29;20031;-79
2023/07/03 02:24:41;;;;;;;8.68;2.83;;;;;;;17.06;71.29;100851.75;10254965;29;20063;-79
2023/07/03 02:29:41;;;;;;;3.40;2.20;;;;;;;17.04;68.34;100853.91;10235811;29;20043;-79
2023/07/03 02:34:41;;;;;;;3.95;2.00;;;;;;;17.03;66.30;100855.81;10236154;29;20043;-79
2023/07/03 02:39:42;;;;;;;7.72;2.22;;;;;;;17.04;66.55;100857.50;10251223;29;20074;-79
2023/07/03 02:44:42;;;;;;;6.00;2.15;;;;;;;16.99;64.19;100854.63;10267141;28;20077;-79
2023/07/03 02:49:43;;;;;;;2.25;1.77;;;;;;;16.98;65.01;100852.16;10250613;29;20143;-79
2023/07/03 02:54:43;;;;;;;7.75;2.75;;;;;;;16.94;65.83;100852.63;10253022;29;20102;-79
2023/07/03 02:59:43;;;;;;;5.70;3.53;;;;;;;16.85;65.57;100862.28;10235049;29;20031;-79
2023/07/03 03:04:47;;;;;;;11.32;3.40;;;;;;;16.81;66.70;100849.31;10251967;29;20487;-79
2023/07/03 03:09:48;;;;;;;11.25;2.30;;;;;;;16.78;67.85;100850.63;10251818;29;20051;-79
2023/07/03 03:14:48;;;;;;;7.03;2.13;;;;;;;16.73;66.61;100850.50;10251478;29;20039;-79
2023/07/03 03:19:48;;;;;;;3.10;2.38;;;;;;;16.67;66.03;100857.75;10218512;29;20101;-79
2023/07/03 03:24:49;;;;;;;7.20;2.97;;;;;;;16.66;67.40;100849.78;10251296;29;20032;-79
2023/07/03 03:29:50;;;;;;;12.32;2.03;;;;;;;16.60;68.22;100848.84;10234265;29;20470;-79
2023/07/03 03:34:50;;;;;;;3.28;1.92;;;;;;;16.44;68.38;100849.56;10255717;29;20150;-79
2023/07/03 03:39:57;;;;;;;5.03;2.05;;;;;;;16.33;69.40;100856.66;10257458;28;20067;-80
2023/07/03 03:44:57;;;;;;;10.68;2.90;;;;;;;16.13;70.32;100850.72;10245480;29;20452;-79
2023/07/03 03:49:58;;;;;;;8.88;3.17;;;;;;;15.92;72.55;100855.69;10240771;29;20138;-79
2023/07/03 03:54:58;;;;;;;5.68;2.22;;;;;;;15.80;74.26;100858.38;10256525;29;20048;-79
2023/07/03 03:59:59;;;;;;;2.42;2.10;;;;;;;15.87;75.06;100851.97;10256024;29;20039;-79
2023/07/03 04:05:00;;;;;;;4.68;2.28;;;;;;;16.05;74.82;100843.72;10225449;29;20121;-78
2023/07/03 04:10:00;;;;;;;5.22;2.10;;;;;;;16.20;74.75;100849.53;10240875;29;20427;-79
2023/07/03 04:15:01;;;;;;;8.68;2.60;;;;;;;16.27;74.72;100854.88;10255728;29;20047;-79
2023/07/03 04:20:04;;;;;;;9.80;1.80;;;;;;;16.36;74.18;100861.66;10239892;29;20116;-80
2023/07/03 04:25:07;;;;;;;7.13;2.40;;;;;;;16.47;73.96;100865.47;10239776;29;20059;-80
2023/07/03 04:30:08;;;;;;;7.35;3.28;;;;;;;16.47;74.53;100862.75;10239895;29;20139;-78
2023/07/03 04:35:08;;;;;;;11.98;2.80;;;;;;;16.53;73.89;100867.28;10255175;29;20586;-81
2023/07/03 04:40:09;;;;;;;14.52;3.63;;;;;;;16.55;73.76;100864.28;10256272;29;20058;-81
2023/07/03 04:45:10;;;;;;;4.97;2.35;;;;;;;16.62;73.26;100865.00;10257151;28;20473;-77
2023/07/03 04:50:12;;;;;;;10.43;2.42;;;;;;;16.68;73.59;100864.88;10180727;28;20059;-87
2023/07/03 04:55:13;;;;;;;15.85;2.83;;;;;;;16.79;73.37;100879.66;10259761;28;20051;-85
2023/07/03 05:00:15;;;;;;;6.40;2.85;;;;;;;17.16;72.81;100873.84;10230591;29;20034;-84
2023/07/03 05:05:20;;;;;;;8.18;2.38;;;;;;;17.08;73.56;100869.59;10251510;29;20031;-75
2023/07/03 05:10:21;;;;;;;5.15;2.80;;;;;;;17.08;74.16;100880.56;10250642;29;20332;-83
2023/07/03 05:15:24;;;;;;;13.27;2.80;;;;;;;17.08;74.05;100880.56;10239954;29;20037;-82
2023/07/03 05:20:25;;;;;;;8.55;3.10;;;;;;;17.10;74.25;100878.41;10256019;29;20046;-81
2023/07/03 05:25:26;;;;;;;11.63;2.55;;;;;;;17.26;72.59;100881.44;10253323;29;20047;-81
2023/07/03 05:30:26;;;;;;;5.13;2.70;;;;;;;17.43;71.72;100888.66;10223391;29;20098;-82
2023/07/03 05:35:27;;;;;;;5.65;2.67;;;;;;;17.48;71.52;100892.56;10254783;29;20045;-81
2023/07/03 05:40:27;;;;;;;13.35;3.58;;;;;;;17.40;71.77;100897.38;10254168;29;20148;-80
2023/07/03 05:45:28;;;;;;;6.85;3.25;;;;;;;17.35;70.73;100896.41;10256554;29;20049;-81
2023/07/03 05:50:28;;;;;;;21.95;2.92;;;;;;;17.28;70.60;100888.34;10252006;29;20055;-82
2023/07/03 05:55:29;;;;;;;7.82;2.72;;;;;;;17.51;70.65;100894.81;10254719;29;20090;-82
2023/07/03 06:00:30;;;;;;;6.43;3.05;;;;;;;17.81;70.59;100906.41;10256136;29;20035;-82
2023/07/03 06:05:31;;;;;;;7.80;3.38;;;;;;;17.92;70.26;100895.63;10249345;29;20106;-81
2023/07/03 06:10:31;;;;;;;3.08;2.38;;;;;;;17.76;69.80;100900.78;10253003;29;20035;-83
2023/07/03 06:15:34;;;;;;;5.20;3.53;;;;;;;18.12;68.79;100899.56;10266612;28;20094;-82
2023/07/03 06:20:34;;;;;;;5.60;2.67;;;;;;;20.05;64.02;100885.97;10253945;29;20035;-82
2023/07/03 06:25:35;;;;;;;4.95;2.72;;;;;;;21.31;57.91;100895.38;10235883;29;20118;-83
2023/07/03 06:30:36;;;;;;;16.17;4.15;;;;;;;21.47;55.98;100896.25;10252965;29;20047;-84
2023/07/03 06:35:36;;;;;;;4.90;2.67;;;;;;;21.53;56.21;100897.94;10236498;29;20043;-82
2023/07/03 06:40:37;;;;;;;4.93;2.08;;;;;;;22.40;51.10;100909.16;10252998;29;20039;-82
2023/07/03 06:45:37;;;;;;;8.88;3.15;;;;;;;22.04;52.59;100898.03;10237317;29;20150;-82
2023/07/03 06:50:39;;;;;;;3.75;2.40;;;;;;;21.54;53.94;100896.03;10237074;29;20052;-82
2023/07/03 06:55:39;;;;;;;7.28;2.53;;;;;;;20.60;54.90;100904.03;10268230;28;20035;-83
2023/07/03 07:00:40;;;;;;;8.65;2.60;;;;;;;20.76;55.10;100913.22;10235562;29;20122;-83
2023/07/03 07:05:40;;;;;;;3.17;1.92;;;;;;;21.13;55.24;100918.69;10253313;28;20055;-83
2023/07/03 07:10:40;;;;;;;8.63;2.83;;;;;;;21.79;53.71;100915.41;10253245;28;20039;-83
2023/07/03 07:15:41;;;;;;;4.38;2.33;;;;;;;22.78;51.31;100917.91;10254945;28;20088;-82
2023/07/03 07:20:42;;;;;;;7.50;3.53;;;;;;;22.38;51.89;100921.56;10258512;29;20110;-84
2023/07/03 07:25:42;;;;;;;5.22;3.40;;;;;;;21.00;52.50;100921.94;10260152;28;20032;-83
2023/07/03 07:30:43;;;;;;;5.03;1.80;;;;;;;22.23;50.30;100931.47;10241555;29;20042;-83
2023/07/03 07:35:43;;;;;;;11.70;3.10;;;;;;;21.92;50.85;100927.84;10259834;29;20046;-82
2023/07/03 07:40:44;;;;;;;9.27;3.22;;;;;;;21.55;53.14;100931.56;10244973;29;20034;-82
2023/07/03 07:45:51;;;;;;;9.27;2.50;;;;;;;21.12;54.97;100941.81;10259968;28;20125;-82
2023/07/03 07:50:52;;;;;;;10.13;3.28;;;;;;;20.41;56.34;100944.03;10262986;28;20055;-82
2023/07/03 07:55:55;;;;;;;6.75;2.92;;;;;;;20.17;58.59;100955.38;10262238;29;20483;-82
2023/07/03 08:00:58;;;;;;;5.45;2.83;;;;;;;21.31;54.86;100939.44;10228794;29;20031;-83
2023/07/03 08:06:03;;;;;;;8.25;2.85;;;;;;;20.60;56.38;100944.50;10260843;28;20047;-83
2023/07/03 08:11:05;;;;;;;5.60;2.78;;;;;;;22.16;52.63;100943.88;10261385;28;20035;-83
2023/07/03 08:16:05;;;;;;;2.15;1.58;;;;;;;22.68;51.44;100951.06;10262011;28;20039;-82
2023/07/03 08:21:06;;;;;;;6.25;2.70;;;;;;;21.84;52.56;100950.41;10247392;29;20039;-82
2023/07/03 08:26:06;;;;;;;3.90;2.50;;;;;;;21.06;54.99;100948.41;10247171;28;20118;-82
2023/07/03 08:31:07;;;;;;;3.67;2.97;;;;;;;20.96;56.14;100959.31;10245041;29;20038;-82
2023/07/03 08:36:07;;;;;;;4.88;2.95;;;;;;;20.73;54.69;100963.28;10244725;29;20046;-82
2023/07/03 08:41:09;;;;;;;5.75;3.58;;;;;;;20.35;55.56;100961.56;10260841;29;20110;-83
2023/07/03 08:46:13;;;;;;;9.38;3.42;;;;;;;19.94;56.95;100962.00;10275164;28;20472;-82
2023/07/03 08:51:15;;;;;;;5.65;3.13;;;;;;;19.53;59.36;100971.66;10246454;29;20063;-83
2023/07/03 08:56:20;;;;;;;13.73;3.65;;;;;;;19.83;61.13;100964.91;10248067;29;20047;-83
2023/07/03 09:01:39;;;;;;;2.22;2.03;;;;;;;20.83;58.98;100971.63;10268034;29;20090;-84
2023/07/03 09:07:02;;;;;;;3.45;2.88;;;;;;;21.50;56.41;100970.13;10259695;29;20144;-84
2023/07/03 09:12:05;;;;;;;4.78;2.58;;;;;;;20.99;55.22;100975.31;10250142;29;20487;-82
2023/07/03 09:17:08;;;;;;;6.10;2.85;;;;;;;20.00;57.55;100970.28;10256588;28;20107;-82
2023/07/03 09:22:26;;;;;;;5.03;2.67;;;;;;;19.63;58.96;100980.03;10238410;29;20027;-82
2023/07/03 09:27:27;;;;;;;4.53;3.08;;;;;;;20.77;58.66;100971.84;10254486;29;20031;-82
2023/07/03 09:32:28;;;;;;;18.25;3.80;;;;;;;21.20;56.87;100969.94;10253219;29;20078;-83
2023/07/03 09:37:29;;;;;;;7.40;3.05;;;;;;;20.83;55.58;100981.81;10238077;28;20059;-84
2023/07/03 09:42:32;;;;;;;14.48;3.58;;;;;;;20.64;56.56;100984.13;10270086;28;20063;-83
2023/07/03 09:47:34;;;;;;;19.95;4.88;;;;;;;21.34;56.59;100973.88;10254729;29;20056;-82
2023/07/03 09:52:42;;;;;;;10.80;3.85;;;;;;;20.64;57.83;100985.00;10223674;29;20377;-83
2023/07/03 09:57:42;;;;;;;4.97;2.75;;;;;;;20.61;58.64;100984.66;10254705;29;20098;-82
2023/07/03 10:02:43;;;;;;;3.53;3.20;;;;;;;21.11;56.89;100973.19;10238540;29;20519;-82
2023/07/03 10:07:44;;;;;;;5.72;3.63;;;;;;;21.55;52.53;100977.59;10254797;29;20118;-84
2023/07/03 10:13:03;;;;;;;11.20;3.38;;;;;;;21.35;52.98;100992.09;10257891;28;20031;-82
2023/07/03 10:18:19;;;;;;;6.53;3.10;;;;;;;20.88;53.08;101004.69;10258842;29;20470;-82
2023/07/03 10:23:30;;;;;;;2.50;2.27;;;;;;;21.57;51.97;101001.03;10255763;29;20034;-84
2023/07/03 10:28:43;;;;;;;8.68;3.38;;;;;;;21.44;53.48;100995.16;10240148;29;20106;-83
2023/07/03 10:33:45;;;;;;;2.72;2.42;;;;;;;20.64;54.51;101014.41;10260012;29;20031;-84
2023/07/03 10:39:05;;;;;;;10.07;3.17;;;;;;;21.17;53.85;101006.28;10246423;29;20498;-84
2023/07/03 10:44:11;;;;;;;9.48;3.55;;;;;;;21.16;52.70;101019.22;10259647;29;20038;-83
2023/07/03 10:49:15;;;;;;;;;;;;;;;21.68;51.57;101012.09;10244575;28;20122;-84
2023/07/03 10:54:19;;;;;;;11.32;2.65;;;;;;;22.63;51.17;101009.06;10271703;29;19925;-81
2023/07/03 10:59:33;;;;;;;6.25;3.05;;;;;;;23.15;48.99;101016.22;10267450;29;20039;-84
2023/07/03 11:04:52;;;;;;;11.13;2.63;;;;;;;23.05;46.23;101019.00;10252956;29;20031;-84
2023/07/03 11:10:17;;;;;;;4.20;2.97;;;;;;;21.78;48.30;101012.97;10273967;29;20031;-82
2023/07/03 11:15:45;;;;;;;2.58;2.30;;;;;;;23.89;45.58;101006.31;10282539;29;20473;-83
2023/07/03 11:21:07;;;;;;;4.05;2.13;;;;;;;24.11;42.45;101008.69;10284585;29;20039;-82
2023/07/03 11:26:16;;;;;;;10.73;2.05;;;;;;;23.26;45.13;101008.72;10270043;29;20027;-84
2023/07/03 11:31:16;;;;;;;7.35;2.58;;;;;;;22.86;46.28;101008.47;10252747;29;20114;-83
2023/07/03 11:36:40;;;;;;;3.63;1.77;;;;;;;21.58;47.77;101021.16;10268372;29;20487;-84
2023/07/03 11:41:50;;;;;;;5.22;2.45;;;;;;;20.97;47.63;101032.59;10264176;29;20058;-84
2023/07/03 11:46:51;;;;;;;8.15;2.78;;;;;;;21.39;48.49;101020.78;10273324;29;20475;-82
2023/07/03 11:52:00;;;;;;;4.68;3.20;;;;;;;24.20;45.30;101012.53;10272583;29;20051;-85
2023/07/03 11:57:03;;;;;;;5.32;2.65;;;;;;;25.89;39.13;101003.47;10239311;29;20062;-83
2023/07/03 12:02:10;;;;;;;1.45;1.40;;;;;;;25.81;38.37;101011.63;10250149;28;20035;-84
2023/07/03 12:07:19;;;;;;;3.33;2.35;;;;;;;23.79;41.78;101022.97;10268376;29;20379;-83
2023/07/03 12:12:21;;;;;;;9.63;2.58;;;;;;;23.27;42.00;101015.94;10268403;29;20031;-83
2023/07/03 12:17:35;;;;;;;6.78;2.38;;;;;;;24.93;40.14;101014.50;10264135;28;20086;-84
2023/07/03 12:22:37;;;;;;;10.23;3.03;;;;;;;23.37;41.08;101016.72;10262130;29;20074;-82
2023/07/03 12:27:38;;;;;;;5.60;2.38;;;;;;;22.15;43.37;101022.19;10260152;29;20071;-84
2023/07/03 12:32:39;;;;;;;7.75;1.63;;;;;;;20.85;44.67;101042.94;10261366;28;20494;-83
2023/07/03 12:37:53;;;;;;;3.10;2.08;;;;;;;19.79;47.56;101040.69;10260244;29;20039;-83
2023/07/03 12:42:58;;;;;;;2.05;1.92;;;;;;;19.23;50.91;101046.19;10244362;29;20102;-83
2023/07/03 12:48:04;;;;;;;1.95;1.48;;;;;;;19.00;52.76;101049.97;10259583;29;20035;-83
2023/07/03 12:53:05;;;;;;;8.07;3.15;;;;;;;18.75;53.42;101039.41;10259542;28;20051;-83
2023/07/03 12:58:06;;;;;;;4.75;1.85;;;;;;;20.47;52.35;101036.50;10227619;29;20118;-82
2023/07/03 13:03:07;;;;;;;9.35;2.45;;;;;;;21.97;47.98;101027.09;10258673;29;20031;-83
2023/07/03 13:08:12;;;;;;;3.38;2.03;;;;;;;22.31;45.86;101015.63;10242675;29;20527;-83
2023/07/03 13:13:19;;;;;;;4.50;2.45;;;;;;;22.26;43.86;101018.38;10227245;28;20097;-82
2023/07/03 13:18:20;;;;;;;1.65;1.50;;;;;;;22.46;44.13;101020.31;10259626;29;20038;-84
2023/07/03 13:23:38;;;;;;;14.23;3.28;;;;;;;22.38;44.84;101015.38;10258261;29;20043;-83
2023/07/03 13:28:40;;;;;;;12.88;3.45;;;;;;;22.52;45.17;101017.28;10261237;29;20035;-84
2023/07/03 13:33:41;;;;;;;18.80;2.78;;;;;;;23.11;43.87;101006.84;10257659;29;20106;-83
2023/07/03 13:38:42;;;;;;;8.02;2.20;;;;;;;21.78;46.19;101003.88;10243588;29;20042;-81
2023/07/03 13:43:42;;;;;;;12.30;3.03;;;;;;;21.07;48.85;101012.56;10261589;29;20086;-83
2023/07/03 13:48:43;;;;;;;3.60;1.92;;;;;;;20.95;50.75;101021.00;10291998;28;20050;-83
2023/07/03 13:53:43;;;;;;;10.20;3.13;;;;;;;20.74;51.18;101019.16;10266783;29;20059;-83
2023/07/03 13:58:44;;;;;;;3.67;2.30;;;;;;;22.05;48.29;101017.47;10262663;29;20070;-83
2023/07/03 14:03:44;;;;;;;13.75;3.30;;;;;;;20.48;51.47;101015.31;10240704;29;20444;-83
2023/07/03 14:08:44;;;;;;;5.80;2.88;;;;;;;19.43;56.04;101004.47;10255399;29;20035;-83
2023/07/03 14:13:46;;;;;;;5.03;2.30;;;;;;;18.81;63.08;101003.56;10256402;29;20434;-83
2023/07/03 14:18:47;;;;;;;6.60;2.53;;;;;;;18.96;67.27;100994.75;10258407;28;20039;-83
2023/07/03 14:23:48;;;;;;;8.63;3.33;;;;;;;21.10;56.65;100966.03;10255664;28;20455;-83
2023/07/03 14:28:48;;;;;;;7.93;3.05;;;;;;;22.69;50.65;100967.38;10238142;29;20043;-83
2023/07/03 14:33:49;;;;;;;9.90;2.90;;;;;;;23.06;46.32;100955.19;10254258;29;20038;-84
2023/07/03 14:38:49;;;;;;;11.88;3.97;;;;;;;22.55;46.73;100951.63;10255507;29;20517;-84
2023/07/03 14:43:50;;;;;;;12.02;3.28;;;;;;;22.35;48.03;100958.81;10255506;29;20040;-82
2023/07/03 14:48:50;;;;;;;9.00;2.22;;;;;;;21.97;48.42;100949.88;10256780;29;20097;-83
2023/07/03 14:53:51;;;;;;;3.50;2.85;;;;;;;21.76;48.24;100953.69;10256010;29;20059;-82
2023/07/03 14:58:51;;;;;;;4.43;3.22;;;;;;;22.78;48.68;100956.56;10238627;29;20067;-84
2023/07/03 15:03:51;;;;;;;8.85;2.95;;;;;;;22.69;48.30;100961.84;10268465;28;20391;-83
2023/07/03 15:08:52;;;;;;;12.43;3.80;;;;;;;22.41;48.90;100954.94;10255763;29;20149;-83
2023/07/03 15:13:53;;;;;;;13.30;3.50;;;;;;;21.80;48.45;100943.78;10253830;28;20031;-84
2023/07/03 15:18:53;;;;;;;9.55;3.20;;;;;;;21.78;48.62;100952.31;10253514;29;20094;-83
2023/07/03 15:23:54;;;;;;;4.45;2.80;;;;;;;21.51;51.09;100952.50;10252604;29;20452;-84
2023/07/03 15:28:54;;;;;;;7.03;3.33;;;;;;;21.13;51.62;100961.94;10253510;29;20062;-82
2023/07/03 15:33:55;;;;;;;3.78;3.00;;;;;;;21.24;53.03;100949.03;10254388;29;20043;-84
2023/07/03 15:38:55;;;;;;;4.45;2.85;;;;;;;21.83;54.40;100949.59;10261148;28;20452;-82
2023/07/03 15:43:56;;;;;;;8.80;4.78;;;;;;;22.25;51.98;100939.47;10243965;29;20035;-83
2023/07/03 15:48:57;;;;;;;13.18;5.65;;;;;;;22.29;52.02;100918.50;10259096;29;20138;-84
2023/07/03 15:53:57;;;;;;;7.00;4.40;;;;;;;22.60;51.30;100924.03;10259578;29;20098;-83
2023/07/03 15:58:59;;;;;;;7.68;3.65;;;;;;;22.60;48.95;100910.22;10259401;28;20050;-83
2023/07/03 16:04:00;;;;;;;3.80;2.75;;;;;;;22.38;49.03;100925.13;10257926;29;20035;-83
2023/07/03 16:09:01;;;;;;;18.30;4.38;;;;;;;22.24;49.95;100922.13;10258239;29;20038;-83
2023/07/03 16:14:02;;;;;;;9.07;3.88;;;;;;;21.50;51.73;100911.44;10260299;29;20032;-84
2023/07/03 16:19:03;;;;;;;6.60;3.63;;;;;;;21.24;52.13;100907.72;10271465;28;20039;-80
2023/07/03 16:24:03;;;;;;;7.68;4.78;;;;;;;20.89;52.47;100900.94;10274013;28;20031;-82
2023/07/03 16:29:06;;;;;;;7.22;4.70;;;;;;;21.04;51.28;100892.75;10274641;28;20130;-83
2023/07/03 16:34:07;;;;;;;8.52;2.95;;;;;;;20.86;49.93;100880.25;10258038;28;20051;-83
2023/07/03 16:39:09;;;;;;;8.27;5.75;;;;;;;20.50;50.38;100876.44;10257964;29;20035;-83
2023/07/03 16:44:09;;;;;;;4.57;3.15;;;;;;;20.20;51.45;100880.63;10240630;29;20070;-83
2023/07/03 16:49:09;;;;;;;23.17;5.22;;;;;;;20.05;52.47;100869.47;10256225;28;20435;-83
2023/07/03 16:54:10;;;;;;;12.15;7.20;;;;;;;20.26;55.68;100858.63;10259542;28;20060;-83
2023/07/03 16:59:10;;;;;;;3.80;2.83;;;;;;;20.15;59.38;100868.72;10257331;29;20042;-82
2023/07/03 17:04:11;;;;;;;15.63;5.22;;;;;;;19.97;62.20;100867.19;10256497;29;20130;-82
2023/07/03 17:09:11;;;;;;;21.05;4.68;;;;;;;19.87;66.46;100875.34;10255821;29;20134;-82
2023/07/03 17:14:12;;;;;;;10.23;3.80;;;;;;;19.76;64.98;100873.59;10257569;29;20034;-82
2023/07/03 17:19:12;;;;;;;10.70;5.25;;;;;;;19.60;64.76;100873.41;10258621;28;20403;-82
2023/07/03 17:24:13;;;;;;;8.68;4.32;;;;;;;19.36;61.77;100867.34;10256800;29;20031;-83
2023/07/03 17:29:13;;;;;;;6.88;3.42;;;;;;;19.19;61.99;100885.81;10241128;29;20134;-82
2023/07/03 17:34:13;;;;;;;6.07;3.72;;;;;;;18.88;64.84;100871.69;10256473;29;20043;-82
2023/07/03 17:39:14;;;;;;;6.45;3.58;;;;;;;18.79;65.92;100865.81;10256128;29;20035;-83
2023/07/03 17:44:14;;;;;;;8.23;4.40;;;;;;;18.56;69.00;100868.72;10256976;29;20367;-84
2023/07/03 17:49:14;;;;;;;29.20;4.78;;;;;;;18.48;71.64;100878.22;10257300;29;20043;-82
2023/07/03 17:54:15;;;;;;;10.88;4.07;;;;;;;18.33;73.15;100867.84;10258166;28;20491;-83
2023/07/03 17:59:15;;;;;;;17.27;5.15;;;;;;;18.40;74.37;100867.66;10256329;28;20522;-81
2023/07/03 18:04:16;;;;;;;9.35;3.63;;;;;;;18.01;78.65;100856.63;10256788;29;20110;-82
2023/07/03 18:09:16;;;;;;;16.42;5.57;;;;;;;17.88;82.28;100852.28;10254483;29;20138;-82
2023/07/03 18:14:17;;;;;;;12.57;5.50;;;;;;;17.86;85.07;100856.34;10256571;28;20073;-82
2023/07/03 18:19:17;;;;;;;16.02;5.05;;;;;;;16.71;100.00;100872.59;10256160;29;20126;-84
2023/07/03 18:24:18;;;;;;;10.40;4.88;;;;;;;15.95;100.00;100871.59;10239821;29;20407;-83
2023/07/03 18:29:18;;;;;;;14.57;5.55;;;;;;;15.63;100.00;100875.59;10256855;28;20142;-81
2023/07/03 18:34:19;;;;;;;19.95;5.55;;;;;;;15.53;100.00;100874.25;10252938;29;20039;-79
2023/07/03 18:39:19;;;;;;;19.58;6.53;;;;;;;15.42;100.00;100869.59;10252855;28;20066;-80
2023/07/03 18:44:20;;;;;;;19.13;5.32;;;;;;;15.31;100.00;100881.25;10235423;29;20091;-76
2023/07/03 18:49:20;;;;;;;17.95;5.82;;;;;;;15.21;100.00;100879.09;10238393;29;20062;-74
2023/07/03 18:54:23;;;;;;;20.45;4.07;;;;;;;14.97;100.00;100883.56;10253421;29;20071;-73
2023/07/03 18:59:24;;;;;;;13.38;2.78;;;;;;;14.55;100.00;100867.03;10255499;28;20058;-77
2023/07/03 19:04:24;;;;;;;12.20;2.85;;;;;;;14.55;100.00;100872.47;10234871;29;20031;-77
2023/07/03 19:09:24;;;;;;;13.88;4.00;;;;;;;14.70;100.00;100869.38;10235311;29;20388;-77
2023/07/03 19:14:25;;;;;;;16.52;5.97;;;;;;;14.94;100.00;100859.47;10260084;28;20027;-78
2023/07/03 19:19:25;;;;;;;24.10;6.60;;;;;;;15.10;100.00;100861.59;10274548;28;20057;-78
2023/07/03 19:24:26;;;;;;;19.48;7.65;;;;;;;15.14;100.00;100859.25;10258712;29;20118;-75
2023/07/03 19:29:26;;;;;;;28.48;9.30;;;;;;;15.25;100.00;100868.53;10257384;29;20466;-74
2023/07/03 19:34:27;;;;;;;32.25;6.95;;;;;;;15.29;100.00;100873.31;10258803;29;20426;-76
2023/07/03 19:39:27;;;;;;;19.63;7.15;;;;;;;15.36;100.00;100878.69;10258858;28;20144;-76
2023/07/03 19:44:28;;;;;;;13.73;4.50;;;;;;;15.27;100.00;100871.88;10257494;29;20031;-73
2023/07/03 19:49:29;;;;;;;21.77;5.15;;;;;;;15.06;100.00;100875.91;10258560;28;20039;-77
2023/07/03 19:54:30;;;;;;;12.98;5.18;;;;;;;15.09;100.00;100876.31;10258396;28;20051;-77
2023/07/03 19:59:30;;;;;;;21.10;7.07;;;;;;;15.17;100.00;100864.25;10258544;28;20047;-77
2023/07/03 20:04:31;;;;;;;24.17;6.60;;;;;;;15.20;100.00;100869.25;10255703;29;20035;-76
2023/07/03 20:09:31;;;;;;;18.25;6.70;;;;;;;15.17;100.00;100894.25;10258029;28;20038;-77
2023/07/03 20:14:32;;;;;;;18.63;3.67;;;;;;;14.83;100.00;100934.66;10256510;29;20041;-76
2023/07/03 20:19:32;;;;;;;2.00;1.90;;;;;;;13.66;100.00;100949.75;10257915;29;20035;-77
2023/07/03 20:24:33;;;;;;;3.63;1.92;;;;;;;13.07;100.00;100937.16;10255452;28;20472;-77
2023/07/03 20:29:33;;;;;;;5.22;2.60;;;;;;;12.85;100.00;100906.69;10256378;29;20035;-76
2023/07/03 20:34:34;;;;;;;3.97;1.75;;;;;;;12.87;100.00;100916.31;10256268;29;20137;-76
2023/07/03 20:39:34;;;;;;;8.13;2.15;;;;;;;13.01;100.00;100931.53;10223678;29;20506;-80
2023/07/03 20:44:35;;;;;;;14.63;3.58;;;;;;;13.12;100.00;100926.50;10239188;29;20467;-77
2023/07/03 20:49:36;;;;;;;16.35;2.95;;;;;;;13.19;100.00;100932.75;10257039;28;20128;-78
2023/07/03 20:54:42;;;;;;;2.92;2.67;;;;;;;13.19;100.00;100932.75;10257366;28;20469;-77
2023/07/03 20:59:43;;;;;;;8.57;4.40;;;;;;;13.28;100.00;100941.53;10240558;29;20105;-78
2023/07/03 21:04:43;;;;;;;15.95;3.63;;;;;;;13.30;100.00;100940.25;10239131;29;20109;-78
2023/07/03 21:09:44;;;;;;;19.67;3.17;;;;;;;13.28;100.00;100941.53;10255045;29;20459;-77
2023/07/03 21:14:45;;;;;;;13.43;3.63;;;;;;;13.31;100.00;100941.13;10238603;29;20069;-77
2023/07/03 21:19:50;;;;;;;12.63;3.97;;;;;;;13.39;100.00;100938.13;10270624;28;20069;-77
2023/07/03 21:24:50;;;;;;;7.05;3.30;;;;;;;13.45;100.00;100945.44;10252881;29;20061;-77
2023/07/03 21:29:51;;;;;;;9.30;4.45;;;;;;;13.58;100.00;100937.22;10237742;29;20078;-77
2023/07/03 21:34:51;;;;;;;4.38;2.58;;;;;;;13.66;100.00;100944.31;10252187;28;20035;-77
2023/07/03 21:39:51;;;;;;;9.10;3.42;;;;;;;13.66;100.00;100931.53;10253350;29;20479;-77
2023/07/03 21:44:52;;;;;;;24.80;5.32;;;;;;;13.76;100.00;100938.41;10252973;29;20090;-77
2023/07/03 21:49:53;;;;;;;24.90;5.53;;;;;;;13.89;100.00;100936.44;10253267;28;20035;-76
2023/07/03 21:54:53;;;;;;;14.43;5.25;;;;;;;14.07;100.00;100935.72;10252332;29;20047;-76
2023/07/03 21:59:54;;;;;;;10.07;4.40;;;;;;;14.25;100.00;100932.22;10237560;29;20050;-76
2023/07/03 22:04:54;;;;;;;17.95;7.50;;;;;;;14.33;100.00;100939.28;10254369;29;20039;-76
2023/07/03 22:09:55;;;;;;;17.05;4.43;;;;;;;14.38;100.00;100928.53;10252272;29;20090;-76
2023/07/03 22:14:55;;;;;;;7.90;3.55;;;;;;;14.39;100.00;100930.25;10253295;29;20061;-77
2023/07/03 22:19:56;;;;;;;10.00;3.10;;;;;;;14.47;100.00;100926.38;10251804;29;20494;-77
2023/07/03 22:24:56;;;;;;;10.25;3.00;;;;;;;14.55;100.00;100939.75;10253060;29;20100;-77
2023/07/03 22:29:56;;;;;;;4.30;3.28;;;;;;;14.69;100.00;100938.59;10235783;29;20043;-77
2023/07/03 22:34:57;;;;;;;7.20;3.03;;;;;;;14.79;100.00;100949.81;10219915;29;20039;-77
2023/07/03 22:39:57;;;;;;;10.93;2.88;;;;;;;14.96;100.00;100947.34;10254033;29;20071;-77
2023/07/03 22:44:58;;;;;;;6.32;2.70;;;;;;;15.03;100.00;100950.03;10252832;28;20379;-77
2023/07/03 22:50:00;;;;;;;14.25;3.60;;;;;;;15.05;100.00;100950.59;10277309;28;20040;-77
2023/07/03 22:55:03;;;;;;;10.98;2.08;;;;;;;15.03;100.00;100950.84;10261225;28;20062;-77
2023/07/03 23:00:10;;;;;;;14.90;3.90;;;;;;;14.98;100.00;100952.56;10261193;28;20436;-77